sensor_id;sensor_type;location;lat;lon;timestamp;P1;durP1;ratioP1;P2;durP2;ratioP2
40449;SDS011;41787;53.570;10.032;2022-07-29T00:01:23;2.47;;;1.20;;
40449;SDS011;41787;53.570;10.032;2022-07-29T00:03:49;8.77;;;1.40;;
40449;SDS011;41787;53.570;10.032;2022-07-29T00:06:15;4.53;;;1.00;;
40449;SDS011;41787;53.570;10.032;2022-07-29T00:08:41;3.45;;;1.27;;
40449;SDS011;41787;53.570;10.032;2022-07-29T00:11:07;4.20;;;1.33;;
40449;SDS011;41787;53.570;10.032;2022-07-29T00:13:33;5.68;;;1.33;;
40449;SDS011;41787;53.570;10.032;2022-07-29T00:15:59;4.00;;;1.60;;
40449;SDS011;41787;53.570;10.032;2022-07-29T00:18:25;3.80;;;1.17;;
40449;SDS011;41787;53.570;10.032;2022-07-29T00:20:51;4.13;;;1.48;;
40449;SDS011;41787;53.570;10.032;2022-07-29T00:23:17;4.80;;;1.30;;
40449;SDS011;41787;53.570;10.032;2022-07-29T00:25:43;2.78;;;1.10;;
40449;SDS011;41787;53.570;10.032;2022-07-29T00:28:09;4.65;;;1.17;;
40449;SDS011;41787;53.570;10.032;2022-07-29T00:30:35;6.45;;;1.30;;
40449;SDS011;41787;53.570;10.032;2022-07-29T00:33:01;4.38;;;0.93;;
40449;SDS011;41787;53.570;10.032;2022-07-29T00:35:27;6.18;;;1.55;;
40449;SDS011;41787;53.570;10.032;2022-07-29T00:38:08;2.65;;;1.02;;
40449;SDS011;41787;53.570;10.032;2022-07-29T00:40:34;3.15;;;1.30;;
40449;SDS011;41787;53.570;10.032;2022-07-29T00:43:00;5.50;;;1.95;;
40449;SDS011;41787;53.570;10.032;2022-07-29T00:45:26;4.03;;;1.50;;
40449;SDS011;41787;53.570;10.032;2022-07-29T00:47:52;4.35;;;1.40;;
40449;SDS011;41787;53.570;10.032;2022-07-29T00:50:18;5.78;;;1.33;;
40449;SDS011;41787;53.570;10.032;2022-07-29T00:52:44;4.07;;;1.25;;
40449;SDS011;41787;53.570;10.032;2022-07-29T00:55:11;3.35;;;1.13;;
40449;SDS011;41787;53.570;10.032;2022-07-29T00:57:38;6.28;;;1.77;;
40449;SDS011;41787;53.570;10.032;2022-07-29T01:00:05;6.70;;;1.35;;
40449;SDS011;41787;53.570;10.032;2022-07-29T01:02:32;6.78;;;1.20;;
40449;SDS011;41787;53.570;10.032;2022-07-29T01:04:58;2.75;;;1.25;;
40449;SDS011;41787;53.570;10.032;2022-07-29T01:07:24;2.88;;;1.30;;
40449;SDS011;41787;53.570;10.032;2022-07-29T01:09:51;8.65;;;1.77;;
40449;SDS011;41787;53.570;10.032;2022-07-29T01:12:23;5.32;;;1.45;;
40449;SDS011;41787;53.570;10.032;2022-07-29T01:14:50;2.78;;;1.38;;
40449;SDS011;41787;53.570;10.032;2022-07-29T01:17:18;4.97;;;1.50;;
40449;SDS011;41787;53.570;10.032;2022-07-29T01:22:24;8.60;;;1.77;;
40449;SDS011;41787;53.570;10.032;2022-07-29T01:25:00;6.00;;;2.15;;
40449;SDS011;41787;53.570;10.032;2022-07-29T01:30:13;5.40;;;1.60;;
40449;SDS011;41787;53.570;10.032;2022-07-29T01:32:39;5.47;;;1.30;;
40449;SDS011;41787;53.570;10.032;2022-07-29T01:35:17;4.68;;;1.73;;
40449;SDS011;41787;53.570;10.032;2022-07-29T01:38:01;2.58;;;1.42;;
40449;SDS011;41787;53.570;10.032;2022-07-29T01:40:34;4.70;;;1.55;;
40449;SDS011;41787;53.570;10.032;2022-07-29T01:43:03;5.35;;;2.33;;
40449;SDS011;41787;53.570;10.032;2022-07-29T01:45:41;8.65;;;3.00;;
40449;SDS011;41787;53.570;10.032;2022-07-29T01:48:13;4.80;;;2.78;;
40449;SDS011;41787;53.570;10.032;2022-07-29T01:50:48;7.20;;;2.88;;
40449;SDS011;41787;53.570;10.032;2022-07-29T01:53:18;6.50;;;3.22;;
40449;SDS011;41787;53.570;10.032;2022-07-29T01:55:47;6.68;;;2.38;;
40449;SDS011;41787;53.570;10.032;2022-07-29T01:58:14;8.60;;;3.05;;
40449;SDS011;41787;53.570;10.032;2022-07-29T02:00:40;5.45;;;2.38;;
40449;SDS011;41787;53.570;10.032;2022-07-29T02:03:07;9.73;;;2.90;;
40449;SDS011;41787;53.570;10.032;2022-07-29T02:05:34;5.60;;;2.53;;
40449;SDS011;41787;53.570;10.032;2022-07-29T02:08:01;10.32;;;3.33;;
40449;SDS011;41787;53.570;10.032;2022-07-29T02:10:28;11.65;;;2.78;;
40449;SDS011;41787;53.570;10.032;2022-07-29T02:12:56;8.23;;;2.47;;
40449;SDS011;41787;53.570;10.032;2022-07-29T02:15:23;9.45;;;2.83;;
40449;SDS011;41787;53.570;10.032;2022-07-29T02:17:51;8.60;;;2.80;;
40449;SDS011;41787;53.570;10.032;2022-07-29T02:20:17;6.38;;;2.70;;
40449;SDS011;41787;53.570;10.032;2022-07-29T02:22:44;7.82;;;2.50;;
40449;SDS011;41787;53.570;10.032;2022-07-29T02:25:10;8.00;;;2.55;;
40449;SDS011;41787;53.570;10.032;2022-07-29T02:27:36;8.10;;;2.22;;
40449;SDS011;41787;53.570;10.032;2022-07-29T02:30:03;9.32;;;2.10;;
40449;SDS011;41787;53.570;10.032;2022-07-29T02:32:30;11.38;;;2.65;;
40449;SDS011;41787;53.570;10.032;2022-07-29T02:34:57;7.22;;;3.13;;
40449;SDS011;41787;53.570;10.032;2022-07-29T02:37:24;7.43;;;2.13;;
40449;SDS011;41787;53.570;10.032;2022-07-29T02:39:52;10.55;;;2.10;;
40449;SDS011;41787;53.570;10.032;2022-07-29T02:42:19;6.50;;;2.10;;
40449;SDS011;41787;53.570;10.032;2022-07-29T02:44:46;3.30;;;1.55;;
40449;SDS011;41787;53.570;10.032;2022-07-29T02:49:55;4.20;;;1.50;;
40449;SDS011;41787;53.570;10.032;2022-07-29T02:52:25;8.77;;;2.03;;
40449;SDS011;41787;53.570;10.032;2022-07-29T02:54:56;9.88;;;1.75;;
40449;SDS011;41787;53.570;10.032;2022-07-29T03:00:08;7.72;;;1.85;;
40449;SDS011;41787;53.570;10.032;2022-07-29T03:02:43;8.48;;;1.63;;
40449;SDS011;41787;53.570;10.032;2022-07-29T03:05:11;5.68;;;1.75;;
40449;SDS011;41787;53.570;10.032;2022-07-29T03:07:37;4.93;;;1.73;;
40449;SDS011;41787;53.570;10.032;2022-07-29T03:10:04;7.95;;;1.83;;
40449;SDS011;41787;53.570;10.032;2022-07-29T03:12:31;6.72;;;2.03;;
40449;SDS011;41787;53.570;10.032;2022-07-29T03:14:58;7.90;;;1.92;;
40449;SDS011;41787;53.570;10.032;2022-07-29T03:17:24;3.17;;;1.55;;
40449;SDS011;41787;53.570;10.032;2022-07-29T03:19:51;4.07;;;1.80;;
40449;SDS011;41787;53.570;10.032;2022-07-29T03:22:17;5.05;;;1.70;;
40449;SDS011;41787;53.570;10.032;2022-07-29T03:24:43;6.65;;;2.00;;
40449;SDS011;41787;53.570;10.032;2022-07-29T03:27:09;3.30;;;2.05;;
40449;SDS011;41787;53.570;10.032;2022-07-29T03:29:35;5.80;;;1.80;;
40449;SDS011;41787;53.570;10.032;2022-07-29T03:32:01;3.35;;;1.75;;
40449;SDS011;41787;53.570;10.032;2022-07-29T03:34:27;7.35;;;2.72;;
40449;SDS011;41787;53.570;10.032;2022-07-29T03:36:53;4.50;;;1.60;;
40449;SDS011;41787;53.570;10.032;2022-07-29T03:39:21;5.13;;;1.88;;
40449;SDS011;41787;53.570;10.032;2022-07-29T03:41:49;4.10;;;1.83;;
40449;SDS011;41787;53.570;10.032;2022-07-29T03:44:17;4.38;;;1.70;;
40449;SDS011;41787;53.570;10.032;2022-07-29T03:46:44;8.50;;;2.10;;
40449;SDS011;41787;53.570;10.032;2022-07-29T03:49:11;5.50;;;2.10;;
40449;SDS011;41787;53.570;10.032;2022-07-29T03:51:40;5.50;;;1.77;;
40449;SDS011;41787;53.570;10.032;2022-07-29T03:54:06;5.90;;;2.33;;
40449;SDS011;41787;53.570;10.032;2022-07-29T03:56:32;8.35;;;2.20;;
40449;SDS011;41787;53.570;10.032;2022-07-29T03:59:00;9.43;;;2.53;;
40449;SDS011;41787;53.570;10.032;2022-07-29T04:01:27;7.30;;;2.20;;
40449;SDS011;41787;53.570;10.032;2022-07-29T04:03:53;4.78;;;1.60;;
40449;SDS011;41787;53.570;10.032;2022-07-29T04:06:19;9.25;;;2.08;;
40449;SDS011;41787;53.570;10.032;2022-07-29T04:08:45;3.88;;;1.73;;
40449;SDS011;41787;53.570;10.032;2022-07-29T04:11:11;7.93;;;2.10;;
40449;SDS011;41787;53.570;10.032;2022-07-29T04:13:37;5.72;;;1.95;;
40449;SDS011;41787;53.570;10.032;2022-07-29T04:16:03;5.72;;;2.10;;
40449;SDS011;41787;53.570;10.032;2022-07-29T04:18:29;6.47;;;1.92;;
40449;SDS011;41787;53.570;10.032;2022-07-29T04:20:54;6.78;;;2.13;;
40449;SDS011;41787;53.570;10.032;2022-07-29T04:23:20;6.85;;;1.90;;
40449;SDS011;41787;53.570;10.032;2022-07-29T04:25:46;7.28;;;2.05;;
40449;SDS011;41787;53.570;10.032;2022-07-29T04:28:12;5.07;;;1.90;;
40449;SDS011;41787;53.570;10.032;2022-07-29T04:30:38;5.28;;;1.60;;
40449;SDS011;41787;53.570;10.032;2022-07-29T04:33:06;8.45;;;2.03;;
40449;SDS011;41787;53.570;10.032;2022-07-29T04:35:36;11.38;;;2.25;;
40449;SDS011;41787;53.570;10.032;2022-07-29T04:38:02;6.85;;;2.17;;
40449;SDS011;41787;53.570;10.032;2022-07-29T04:40:28;6.28;;;2.03;;
40449;SDS011;41787;53.570;10.032;2022-07-29T04:42:54;4.38;;;2.30;;
40449;SDS011;41787;53.570;10.032;2022-07-29T04:45:21;7.22;;;2.00;;
40449;SDS011;41787;53.570;10.032;2022-07-29T04:47:47;6.05;;;2.10;;
40449;SDS011;41787;53.570;10.032;2022-07-29T04:50:13;4.43;;;1.75;;
40449;SDS011;41787;53.570;10.032;2022-07-29T04:52:38;7.15;;;2.10;;
40449;SDS011;41787;53.570;10.032;2022-07-29T04:55:05;9.02;;;2.10;;
40449;SDS011;41787;53.570;10.032;2022-07-29T04:57:31;5.93;;;2.08;;
40449;SDS011;41787;53.570;10.032;2022-07-29T04:59:56;6.15;;;2.33;;
40449;SDS011;41787;53.570;10.032;2022-07-29T05:02:22;7.50;;;1.98;;
40449;SDS011;41787;53.570;10.032;2022-07-29T05:04:48;7.63;;;2.50;;
40449;SDS011;41787;53.570;10.032;2022-07-29T05:07:14;5.07;;;2.05;;
40449;SDS011;41787;53.570;10.032;2022-07-29T05:09:40;4.70;;;1.70;;
40449;SDS011;41787;53.570;10.032;2022-07-29T05:12:06;6.25;;;2.13;;
40449;SDS011;41787;53.570;10.032;2022-07-29T05:14:32;6.35;;;1.85;;
40449;SDS011;41787;53.570;10.032;2022-07-29T05:16:58;3.95;;;2.20;;
40449;SDS011;41787;53.570;10.032;2022-07-29T05:19:24;6.22;;;1.90;;
40449;SDS011;41787;53.570;10.032;2022-07-29T05:21:50;6.35;;;2.22;;
40449;SDS011;41787;53.570;10.032;2022-07-29T05:24:16;5.63;;;2.08;;
40449;SDS011;41787;53.570;10.032;2022-07-29T05:26:42;4.70;;;1.98;;
40449;SDS011;41787;53.570;10.032;2022-07-29T05:29:11;6.88;;;1.80;;
40449;SDS011;41787;53.570;10.032;2022-07-29T05:31:37;5.75;;;1.95;;
40449;SDS011;41787;53.570;10.032;2022-07-29T05:34:03;5.15;;;1.83;;
40449;SDS011;41787;53.570;10.032;2022-07-29T05:36:29;4.40;;;1.80;;
40449;SDS011;41787;53.570;10.032;2022-07-29T05:38:54;7.07;;;1.83;;
40449;SDS011;41787;53.570;10.032;2022-07-29T05:41:20;7.68;;;2.20;;
40449;SDS011;41787;53.570;10.032;2022-07-29T05:43:46;7.18;;;1.95;;
40449;SDS011;41787;53.570;10.032;2022-07-29T05:46:12;6.38;;;1.77;;
40449;SDS011;41787;53.570;10.032;2022-07-29T05:48:41;6.20;;;2.00;;
40449;SDS011;41787;53.570;10.032;2022-07-29T05:51:07;4.47;;;2.38;;
40449;SDS011;41787;53.570;10.032;2022-07-29T05:53:33;7.22;;;2.03;;
40449;SDS011;41787;53.570;10.032;2022-07-29T05:56:02;6.43;;;1.83;;
40449;SDS011;41787;53.570;10.032;2022-07-29T05:58:28;7.57;;;1.90;;
40449;SDS011;41787;53.570;10.032;2022-07-29T06:00:54;6.47;;;1.90;;
40449;SDS011;41787;53.570;10.032;2022-07-29T06:03:24;2.67;;;1.10;;
40449;SDS011;41787;53.570;10.032;2022-07-29T06:05:49;10.75;;;2.10;;
40449;SDS011;41787;53.570;10.032;2022-07-29T06:08:15;3.25;;;1.50;;
40449;SDS011;41787;53.570;10.032;2022-07-29T06:10:42;5.50;;;1.83;;
40449;SDS011;41787;53.570;10.032;2022-07-29T06:13:08;4.50;;;1.58;;
40449;SDS011;41787;53.570;10.032;2022-07-29T06:15:34;4.75;;;1.52;;
40449;SDS011;41787;53.570;10.032;2022-07-29T06:18:00;5.97;;;1.58;;
40449;SDS011;41787;53.570;10.032;2022-07-29T06:20:27;7.22;;;2.08;;
40449;SDS011;41787;53.570;10.032;2022-07-29T06:22:54;5.07;;;2.05;;
40449;SDS011;41787;53.570;10.032;2022-07-29T06:25:20;5.82;;;1.77;;
40449;SDS011;41787;53.570;10.032;2022-07-29T06:27:46;4.03;;;1.60;;
40449;SDS011;41787;53.570;10.032;2022-07-29T06:30:12;6.00;;;1.60;;
40449;SDS011;41787;53.570;10.032;2022-07-29T06:32:38;5.53;;;1.80;;
40449;SDS011;41787;53.570;10.032;2022-07-29T06:35:04;3.55;;;1.48;;
40449;SDS011;41787;53.570;10.032;2022-07-29T06:37:31;4.55;;;1.38;;
40449;SDS011;41787;53.570;10.032;2022-07-29T06:39:57;4.10;;;1.60;;
40449;SDS011;41787;53.570;10.032;2022-07-29T06:42:42;4.10;;;1.38;;
40449;SDS011;41787;53.570;10.032;2022-07-29T06:45:08;7.32;;;1.83;;
40449;SDS011;41787;53.570;10.032;2022-07-29T06:47:34;5.78;;;2.10;;
40449;SDS011;41787;53.570;10.032;2022-07-29T06:50:00;6.53;;;2.05;;
40449;SDS011;41787;53.570;10.032;2022-07-29T06:52:26;5.53;;;2.05;;
40449;SDS011;41787;53.570;10.032;2022-07-29T06:54:52;4.05;;;1.60;;
40449;SDS011;41787;53.570;10.032;2022-07-29T06:57:19;6.05;;;1.85;;
40449;SDS011;41787;53.570;10.032;2022-07-29T06:59:45;7.65;;;1.65;;
40449;SDS011;41787;53.570;10.032;2022-07-29T07:02:12;5.63;;;1.70;;
40449;SDS011;41787;53.570;10.032;2022-07-29T07:04:38;2.75;;;1.35;;
40449;SDS011;41787;53.570;10.032;2022-07-29T07:07:03;4.07;;;1.92;;
40449;SDS011;41787;53.570;10.032;2022-07-29T07:09:29;8.80;;;1.90;;
40449;SDS011;41787;53.570;10.032;2022-07-29T07:11:55;6.47;;;2.00;;
40449;SDS011;41787;53.570;10.032;2022-07-29T07:14:21;6.60;;;2.03;;
40449;SDS011;41787;53.570;10.032;2022-07-29T07:16:47;4.40;;;1.55;;
40449;SDS011;41787;53.570;10.032;2022-07-29T07:19:13;7.80;;;2.17;;
40449;SDS011;41787;53.570;10.032;2022-07-29T07:21:39;5.30;;;1.77;;
40449;SDS011;41787;53.570;10.032;2022-07-29T07:24:05;3.17;;;1.60;;
40449;SDS011;41787;53.570;10.032;2022-07-29T07:26:31;5.50;;;1.55;;
40449;SDS011;41787;53.570;10.032;2022-07-29T07:28:57;4.75;;;1.60;;
40449;SDS011;41787;53.570;10.032;2022-07-29T07:31:25;4.25;;;1.90;;
40449;SDS011;41787;53.570;10.032;2022-07-29T07:33:51;4.82;;;1.67;;
40449;SDS011;41787;53.570;10.032;2022-07-29T07:36:18;7.22;;;1.65;;
40449;SDS011;41787;53.570;10.032;2022-07-29T07:38:44;6.38;;;1.40;;
40449;SDS011;41787;53.570;10.032;2022-07-29T07:41:10;7.53;;;1.67;;
40449;SDS011;41787;53.570;10.032;2022-07-29T07:43:36;7.85;;;1.80;;
40449;SDS011;41787;53.570;10.032;2022-07-29T07:46:02;4.75;;;1.95;;
40449;SDS011;41787;53.570;10.032;2022-07-29T07:48:28;5.95;;;2.10;;
40449;SDS011;41787;53.570;10.032;2022-07-29T07:50:54;4.25;;;1.55;;
40449;SDS011;41787;53.570;10.032;2022-07-29T07:53:20;3.65;;;1.70;;
40449;SDS011;41787;53.570;10.032;2022-07-29T07:55:46;4.85;;;1.60;;
40449;SDS011;41787;53.570;10.032;2022-07-29T07:58:12;4.28;;;1.40;;
40449;SDS011;41787;53.570;10.032;2022-07-29T08:00:38;7.25;;;1.90;;
40449;SDS011;41787;53.570;10.032;2022-07-29T08:03:04;12.98;;;2.13;;
40449;SDS011;41787;53.570;10.032;2022-07-29T08:05:30;8.48;;;1.92;;
40449;SDS011;41787;53.570;10.032;2022-07-29T08:07:57;6.70;;;2.20;;
40449;SDS011;41787;53.570;10.032;2022-07-29T08:10:23;6.07;;;1.67;;
40449;SDS011;41787;53.570;10.032;2022-07-29T08:13:08;7.97;;;1.77;;
40449;SDS011;41787;53.570;10.032;2022-07-29T08:15:36;7.15;;;2.00;;
40449;SDS011;41787;53.570;10.032;2022-07-29T08:18:04;6.80;;;1.13;;
40449;SDS011;41787;53.570;10.032;2022-07-29T08:20:30;5.97;;;2.05;;
40449;SDS011;41787;53.570;10.032;2022-07-29T08:22:58;5.53;;;1.08;;
40449;SDS011;41787;53.570;10.032;2022-07-29T08:25:24;12.07;;;1.95;;
40449;SDS011;41787;53.570;10.032;2022-07-29T08:27:50;4.85;;;1.77;;
40449;SDS011;41787;53.570;10.032;2022-07-29T08:30:16;8.40;;;1.38;;
40449;SDS011;41787;53.570;10.032;2022-07-29T08:32:42;9.70;;;2.03;;
40449;SDS011;41787;53.570;10.032;2022-07-29T08:35:08;2.40;;;1.15;;
40449;SDS011;41787;53.570;10.032;2022-07-29T08:37:34;3.58;;;1.55;;
40449;SDS011;41787;53.570;10.032;2022-07-29T08:40:00;3.40;;;1.60;;
40449;SDS011;41787;53.570;10.032;2022-07-29T08:42:26;4.95;;;2.00;;
40449;SDS011;41787;53.570;10.032;2022-07-29T08:44:52;4.28;;;1.67;;
40449;SDS011;41787;53.570;10.032;2022-07-29T08:47:18;10.77;;;2.00;;
40449;SDS011;41787;53.570;10.032;2022-07-29T08:49:44;5.88;;;1.83;;
40449;SDS011;41787;53.570;10.032;2022-07-29T08:52:12;6.75;;;1.50;;
40449;SDS011;41787;53.570;10.032;2022-07-29T08:54:38;8.30;;;1.98;;
40449;SDS011;41787;53.570;10.032;2022-07-29T08:57:05;9.07;;;1.17;;
40449;SDS011;41787;53.570;10.032;2022-07-29T08:59:31;4.38;;;1.70;;
40449;SDS011;41787;53.570;10.032;2022-07-29T09:01:59;4.03;;;1.42;;
40449;SDS011;41787;53.570;10.032;2022-07-29T09:04:27;11.32;;;3.40;;
40449;SDS011;41787;53.570;10.032;2022-07-29T09:06:53;6.85;;;1.65;;
40449;SDS011;41787;53.570;10.032;2022-07-29T09:09:21;6.13;;;1.67;;
40449;SDS011;41787;53.570;10.032;2022-07-29T09:11:47;8.40;;;1.38;;
40449;SDS011;41787;53.570;10.032;2022-07-29T09:14:13;8.98;;;1.80;;
40449;SDS011;41787;53.570;10.032;2022-07-29T09:16:53;4.75;;;2.00;;
40449;SDS011;41787;53.570;10.032;2022-07-29T09:19:20;9.90;;;2.42;;
40449;SDS011;41787;53.570;10.032;2022-07-29T09:24:24;2.42;;;0.82;;
40449;SDS011;41787;53.570;10.032;2022-07-29T09:26:51;6.82;;;1.63;;
40449;SDS011;41787;53.570;10.032;2022-07-29T09:29:18;4.43;;;1.30;;
40449;SDS011;41787;53.570;10.032;2022-07-29T09:31:45;10.65;;;1.67;;
40449;SDS011;41787;53.570;10.032;2022-07-29T09:34:12;3.88;;;1.50;;
40449;SDS011;41787;53.570;10.032;2022-07-29T09:36:46;2.00;;;1.10;;
40449;SDS011;41787;53.570;10.032;2022-07-29T09:39:13;8.45;;;1.48;;
40449;SDS011;41787;53.570;10.032;2022-07-29T09:41:46;5.10;;;1.40;;
40449;SDS011;41787;53.570;10.032;2022-07-29T09:44:12;2.15;;;1.30;;
40449;SDS011;41787;53.570;10.032;2022-07-29T09:46:39;3.25;;;1.00;;
40449;SDS011;41787;53.570;10.032;2022-07-29T09:49:10;7.82;;;1.33;;
40449;SDS011;41787;53.570;10.032;2022-07-29T09:51:37;7.15;;;1.17;;
40449;SDS011;41787;53.570;10.032;2022-07-29T09:54:22;6.15;;;1.60;;
40449;SDS011;41787;53.570;10.032;2022-07-29T09:56:48;6.95;;;1.25;;
40449;SDS011;41787;53.570;10.032;2022-07-29T09:59:14;6.40;;;1.30;;
40449;SDS011;41787;53.570;10.032;2022-07-29T10:01:40;4.25;;;1.20;;
40449;SDS011;41787;53.570;10.032;2022-07-29T10:04:06;7.10;;;1.52;;
40449;SDS011;41787;53.570;10.032;2022-07-29T10:06:32;7.63;;;1.67;;
40449;SDS011;41787;53.570;10.032;2022-07-29T10:09:08;3.38;;;1.38;;
40449;SDS011;41787;53.570;10.032;2022-07-29T10:11:34;5.78;;;1.20;;
40449;SDS011;41787;53.570;10.032;2022-07-29T10:14:01;3.75;;;1.10;;
40449;SDS011;41787;53.570;10.032;2022-07-29T10:16:27;6.32;;;1.35;;
40449;SDS011;41787;53.570;10.032;2022-07-29T10:18:57;4.25;;;0.98;;
40449;SDS011;41787;53.570;10.032;2022-07-29T10:21:24;5.03;;;1.40;;
40449;SDS011;41787;53.570;10.032;2022-07-29T10:23:50;5.47;;;1.50;;
40449;SDS011;41787;53.570;10.032;2022-07-29T10:26:17;6.68;;;1.33;;
40449;SDS011;41787;53.570;10.032;2022-07-29T10:28:43;6.28;;;1.10;;
40449;SDS011;41787;53.570;10.032;2022-07-29T10:31:11;5.60;;;1.30;;
40449;SDS011;41787;53.570;10.032;2022-07-29T10:34:13;3.70;;;1.10;;
40449;SDS011;41787;53.570;10.032;2022-07-29T10:39:32;2.00;;;1.00;;
40449;SDS011;41787;53.570;10.032;2022-07-29T10:42:06;8.98;;;1.20;;
40449;SDS011;41787;53.570;10.032;2022-07-29T10:44:35;4.97;;;1.15;;
40449;SDS011;41787;53.570;10.032;2022-07-29T10:47:04;2.13;;;0.95;;
40449;SDS011;41787;53.570;10.032;2022-07-29T10:49:30;4.32;;;1.05;;
40449;SDS011;41787;53.570;10.032;2022-07-29T10:52:06;4.30;;;1.25;;
40449;SDS011;41787;53.570;10.032;2022-07-29T10:57:11;5.10;;;1.17;;
40449;SDS011;41787;53.570;10.032;2022-07-29T10:59:37;6.63;;;1.27;;
40449;SDS011;41787;53.570;10.032;2022-07-29T11:02:40;1.98;;;1.20;;
40449;SDS011;41787;53.570;10.032;2022-07-29T11:07:15;9.90;;;1.48;;
40449;SDS011;41787;53.570;10.032;2022-07-29T11:09:41;3.45;;;1.20;;
40449;SDS011;41787;53.570;10.032;2022-07-29T11:14:55;5.68;;;0.75;;
40449;SDS011;41787;53.570;10.032;2022-07-29T11:17:22;4.88;;;0.93;;
40449;SDS011;41787;53.570;10.032;2022-07-29T11:19:47;5.22;;;0.95;;
40449;SDS011;41787;53.570;10.032;2022-07-29T11:22:35;3.53;;;0.90;;
40449;SDS011;41787;53.570;10.032;2022-07-29T11:25:13;4.28;;;1.15;;
40449;SDS011;41787;53.570;10.032;2022-07-29T11:27:39;2.45;;;0.90;;
40449;SDS011;41787;53.570;10.032;2022-07-29T11:30:05;4.18;;;1.05;;
40449;SDS011;41787;53.570;10.032;2022-07-29T11:32:41;5.47;;;1.08;;
40449;SDS011;41787;53.570;10.032;2022-07-29T11:37:40;6.15;;;1.00;;
40449;SDS011;41787;53.570;10.032;2022-07-29T11:45:03;6.22;;;1.33;;
40449;SDS011;41787;53.570;10.032;2022-07-29T11:47:34;3.78;;;1.00;;
40449;SDS011;41787;53.570;10.032;2022-07-29T11:52:39;5.28;;;1.30;;
40449;SDS011;41787;53.570;10.032;2022-07-29T11:55:11;3.03;;;1.10;;
40449;SDS011;41787;53.570;10.032;2022-07-29T11:57:38;8.60;;;1.05;;
40449;SDS011;41787;53.570;10.032;2022-07-29T12:00:11;5.22;;;1.40;;
40449;SDS011;41787;53.570;10.032;2022-07-29T12:02:40;2.58;;;0.65;;
40449;SDS011;41787;53.570;10.032;2022-07-29T12:05:06;7.18;;;1.08;;
40449;SDS011;41787;53.570;10.032;2022-07-29T12:07:33;6.80;;;1.65;;
40449;SDS011;41787;53.570;10.032;2022-07-29T12:10:00;2.80;;;1.08;;
40449;SDS011;41787;53.570;10.032;2022-07-29T12:12:26;5.68;;;1.10;;
40449;SDS011;41787;53.570;10.032;2022-07-29T12:14:58;4.45;;;1.50;;
40449;SDS011;41787;53.570;10.032;2022-07-29T12:17:35;2.80;;;0.82;;
40449;SDS011;41787;53.570;10.032;2022-07-29T12:20:02;6.70;;;1.20;;
40449;SDS011;41787;53.570;10.032;2022-07-29T12:25:00;7.20;;;1.42;;
40449;SDS011;41787;53.570;10.032;2022-07-29T12:27:26;6.20;;;1.00;;
40449;SDS011;41787;53.570;10.032;2022-07-29T12:29:58;3.17;;;1.02;;
40449;SDS011;41787;53.570;10.032;2022-07-29T12:32:32;6.13;;;1.58;;
40449;SDS011;41787;53.570;10.032;2022-07-29T12:34:59;4.53;;;1.35;;
40449;SDS011;41787;53.570;10.032;2022-07-29T12:37:25;3.83;;;1.17;;
40449;SDS011;41787;53.570;10.032;2022-07-29T12:39:51;4.10;;;1.15;;
40449;SDS011;41787;53.570;10.032;2022-07-29T12:42:16;6.88;;;1.13;;
40449;SDS011;41787;53.570;10.032;2022-07-29T12:44:49;6.20;;;1.08;;
40449;SDS011;41787;53.570;10.032;2022-07-29T12:47:16;5.65;;;1.15;;
40449;SDS011;41787;53.570;10.032;2022-07-29T12:49:43;2.95;;;0.70;;
40449;SDS011;41787;53.570;10.032;2022-07-29T12:52:28;5.05;;;1.27;;
40449;SDS011;41787;53.570;10.032;2022-07-29T12:54:55;7.88;;;1.40;;
40449;SDS011;41787;53.570;10.032;2022-07-29T12:57:21;4.80;;;1.20;;
40449;SDS011;41787;53.570;10.032;2022-07-29T13:02:25;2.78;;;1.02;;
40449;SDS011;41787;53.570;10.032;2022-07-29T13:04:55;2.22;;;0.95;;
40449;SDS011;41787;53.570;10.032;2022-07-29T13:07:31;2.30;;;0.73;;
40449;SDS011;41787;53.570;10.032;2022-07-29T13:10:11;7.40;;;1.20;;
40449;SDS011;41787;53.570;10.032;2022-07-29T13:12:38;3.72;;;1.10;;
40449;SDS011;41787;53.570;10.032;2022-07-29T13:15:14;5.28;;;1.23;;
40449;SDS011;41787;53.570;10.032;2022-07-29T13:17:41;4.60;;;1.30;;
40449;SDS011;41787;53.570;10.032;2022-07-29T13:20:09;4.07;;;1.20;;
40449;SDS011;41787;53.570;10.032;2022-07-29T13:22:37;6.50;;;1.07;;
40449;SDS011;41787;53.570;10.032;2022-07-29T13:25:03;3.40;;;1.00;;
40449;SDS011;41787;53.570;10.032;2022-07-29T13:27:33;5.00;;;1.40;;
40449;SDS011;41787;53.570;10.032;2022-07-29T13:30:02;6.68;;;0.95;;
40449;SDS011;41787;53.570;10.032;2022-07-29T13:32:29;4.70;;;1.05;;
40449;SDS011;41787;53.570;10.032;2022-07-29T13:34:56;5.07;;;0.93;;
40449;SDS011;41787;53.570;10.032;2022-07-29T13:37:22;6.38;;;1.10;;
40449;SDS011;41787;53.570;10.032;2022-07-29T13:39:48;3.72;;;1.08;;
40449;SDS011;41787;53.570;10.032;2022-07-29T13:42:14;7.20;;;1.38;;
40449;SDS011;41787;53.570;10.032;2022-07-29T13:44:40;2.28;;;1.10;;
40449;SDS011;41787;53.570;10.032;2022-07-29T13:47:07;5.70;;;1.58;;
40449;SDS011;41787;53.570;10.032;2022-07-29T13:49:33;8.48;;;1.77;;
40449;SDS011;41787;53.570;10.032;2022-07-29T13:51:59;4.10;;;1.33;;
40449;SDS011;41787;53.570;10.032;2022-07-29T13:54:25;8.23;;;1.40;;
40449;SDS011;41787;53.570;10.032;2022-07-29T13:56:51;4.00;;;1.98;;
40449;SDS011;41787;53.570;10.032;2022-07-29T13:59:17;5.20;;;1.75;;
40449;SDS011;41787;53.570;10.032;2022-07-29T14:01:43;5.38;;;1.80;;
40449;SDS011;41787;53.570;10.032;2022-07-29T14:04:09;1.88;;;0.80;;
40449;SDS011;41787;53.570;10.032;2022-07-29T14:06:35;4.57;;;1.25;;
40449;SDS011;41787;53.570;10.032;2022-07-29T14:09:02;4.60;;;1.63;;
40449;SDS011;41787;53.570;10.032;2022-07-29T14:11:31;7.53;;;1.40;;
40449;SDS011;41787;53.570;10.032;2022-07-29T14:13:57;4.53;;;1.23;;
40449;SDS011;41787;53.570;10.032;2022-07-29T14:16:22;6.43;;;1.40;;
40449;SDS011;41787;53.570;10.032;2022-07-29T14:18:48;6.72;;;1.75;;
40449;SDS011;41787;53.570;10.032;2022-07-29T14:21:14;4.25;;;1.48;;
40449;SDS011;41787;53.570;10.032;2022-07-29T14:23:40;7.05;;;1.77;;
40449;SDS011;41787;53.570;10.032;2022-07-29T14:26:07;9.10;;;1.73;;
40449;SDS011;41787;53.570;10.032;2022-07-29T14:28:33;3.92;;;1.58;;
40449;SDS011;41787;53.570;10.032;2022-07-29T14:30:58;5.63;;;1.60;;
40449;SDS011;41787;53.570;10.032;2022-07-29T14:33:24;6.55;;;1.23;;
40449;SDS011;41787;53.570;10.032;2022-07-29T14:35:50;7.35;;;1.60;;
40449;SDS011;41787;53.570;10.032;2022-07-29T14:38:16;3.33;;;1.25;;
40449;SDS011;41787;53.570;10.032;2022-07-29T14:40:42;5.03;;;1.30;;
40449;SDS011;41787;53.570;10.032;2022-07-29T14:43:08;3.70;;;1.50;;
40449;SDS011;41787;53.570;10.032;2022-07-29T14:45:34;7.15;;;0.85;;
40449;SDS011;41787;53.570;10.032;2022-07-29T14:48:00;3.08;;;1.17;;
40449;SDS011;41787;53.570;10.032;2022-07-29T14:50:26;7.05;;;2.03;;
40449;SDS011;41787;53.570;10.032;2022-07-29T14:52:52;4.40;;;1.40;;
40449;SDS011;41787;53.570;10.032;2022-07-29T14:55:19;5.88;;;1.38;;
40449;SDS011;41787;53.570;10.032;2022-07-29T14:57:45;4.10;;;1.25;;
40449;SDS011;41787;53.570;10.032;2022-07-29T15:00:12;1.98;;;1.35;;
40449;SDS011;41787;53.570;10.032;2022-07-29T15:02:38;7.75;;;1.50;;
40449;SDS011;41787;53.570;10.032;2022-07-29T15:05:04;3.22;;;0.85;;
40449;SDS011;41787;53.570;10.032;2022-07-29T15:07:30;4.35;;;1.40;;
40449;SDS011;41787;53.570;10.032;2022-07-29T15:09:56;3.53;;;1.58;;
40449;SDS011;41787;53.570;10.032;2022-07-29T15:12:22;5.68;;;1.30;;
40449;SDS011;41787;53.570;10.032;2022-07-29T15:14:48;6.68;;;1.50;;